Terminal Aerodrome Forecast
Issued by NWS

Home | Current Version | Previous Version | Text Only | Print | Product List | Glossary Off
Versions: 1 2 3 4 5 6 7 8 9 10 11 12 13 14 15

335
FTUS43 KTOP 261132
TAFFOE
TAF
KFOE 261132Z 2612/2712 01002KT P6SM FEW250
     FM261800 35008KT P6SM SCT040
     FM270000 02004KT P6SM FEW250=

USA.gov is the U.S. government's official web portal to all federal, state and local government web resources and services.